createdAt,value
2024-02-24T00:00:20.525Z,97054.08
2024-02-24T00:03:09.041Z,97047.60
2024-02-24T00:05:37.727Z,97041.73
2024-02-24T00:08:07.013Z,97041.66
2024-02-24T00:10:35.491Z,97035.48
2024-02-24T00:13:05.131Z,97027.45
2024-02-24T00:15:33.576Z,97029.49
2024-02-24T00:18:02.146Z,97029.98
2024-02-24T00:20:30.704Z,97028.64
2024-02-24T00:22:59.692Z,97028.23
2024-02-24T00:25:28.242Z,97031.38
2024-02-24T00:27:56.963Z,97030.42
2024-02-24T00:30:25.429Z,97028.52
2024-02-24T00:32:54.226Z,97027.20
2024-02-24T00:35:23.713Z,97019.80
2024-02-24T00:37:52.175Z,97011.27
2024-02-24T00:40:20.658Z,97009.91
2024-02-24T00:42:49.256Z,97015.69
2024-02-24T00:45:17.772Z,97018.08
2024-02-24T00:47:46.393Z,97021.98
2024-02-24T00:50:15.455Z,97021.38
2024-02-24T00:52:44.375Z,97018.34
2024-02-24T00:55:12.860Z,97015.46
2024-02-24T00:57:41.391Z,97015.50
2024-02-24T01:00:11.028Z,97022.34
2024-02-24T01:02:39.506Z,97019.96
2024-02-24T01:05:11.391Z,97016.00
2024-02-24T01:07:39.814Z,97016.55
2024-02-24T01:10:09.922Z,97013.31
2024-02-24T01:12:38.394Z,97000.52
2024-02-24T01:15:07.434Z,96997.34
2024-02-24T01:17:36.006Z,97000.19
2024-02-24T01:20:04.933Z,97001.21
2024-02-24T01:22:33.426Z,96994.72
2024-02-24T01:25:02.004Z,96993.13
2024-02-24T01:27:30.438Z,96984.39
2024-02-24T01:29:58.916Z,96979.48
2024-02-24T01:32:27.572Z,96981.02
2024-02-24T01:34:56.181Z,96984.39
2024-02-24T01:37:25.191Z,96989.08
2024-02-24T01:39:53.654Z,96995.70
2024-02-24T01:42:22.153Z,97003.23
2024-02-24T01:44:50.717Z,97000.21
2024-02-24T01:47:19.908Z,97000.80
2024-02-24T01:49:48.676Z,96988.50
2024-02-24T01:52:17.918Z,96992.40
2024-02-24T01:54:46.919Z,96998.92
2024-02-24T01:57:15.572Z,97011.13
2024-02-24T01:59:44.185Z,97003.66
2024-02-24T02:02:12.763Z,96994.02
2024-02-24T02:04:41.312Z,96988.30
2024-02-24T02:07:09.958Z,96991.23
2024-02-24T02:09:57.655Z,96991.00
2024-02-24T02:12:27.082Z,96999.95
2024-02-24T02:14:57.097Z,97005.96
2024-02-24T02:17:25.806Z,97005.69
2024-02-24T02:19:54.346Z,96996.95
2024-02-24T02:22:25.946Z,96995.27
2024-02-24T02:24:54.530Z,97001.70
2024-02-24T02:27:23.168Z,96995.17
2024-02-24T02:29:51.722Z,96999.21
2024-02-24T02:32:20.246Z,96999.48
2024-02-24T02:34:48.718Z,96994.38
2024-02-24T02:37:17.203Z,96990.58
2024-02-24T02:39:45.720Z,96986.01
2024-02-24T02:42:14.247Z,96979.78
2024-02-24T02:44:42.733Z,96975.98
2024-02-24T02:47:19.561Z,96975.38
2024-02-24T02:49:51.974Z,96982.45
2024-02-24T02:52:20.480Z,96981.68
2024-02-24T02:54:48.956Z,96987.23
2024-02-24T02:57:20.630Z,96986.52
2024-02-24T02:59:49.219Z,96984.46
2024-02-24T03:02:18.007Z,96987.80
2024-02-24T03:04:46.495Z,96990.84
2024-02-24T03:07:15.054Z,96994.86
2024-02-24T03:09:51.053Z,96999.46
2024-02-24T03:12:19.727Z,96990.73
2024-02-24T03:14:48.400Z,96988.34
2024-02-24T03:17:16.925Z,96986.54
2024-02-24T03:19:45.392Z,96994.70
2024-02-24T03:22:13.821Z,96998.98
2024-02-24T03:24:43.535Z,96999.67
2024-02-24T03:27:15.138Z,96997.46
2024-02-24T03:29:43.616Z,96996.77
2024-02-24T03:32:12.263Z,96997.45
2024-02-24T03:34:40.837Z,96999.10
2024-02-24T03:37:09.310Z,97003.11
2024-02-24T03:39:38.862Z,97002.92
2024-02-24T03:42:07.322Z,97007.85
2024-02-24T03:44:35.858Z,97015.71
2024-02-24T03:47:04.478Z,97017.34
2024-02-24T03:49:32.972Z,97015.79
2024-02-24T03:52:01.400Z,97022.58
2024-02-24T03:54:29.849Z,97015.42
2024-02-24T03:56:58.359Z,97010.32
2024-02-24T03:59:27.155Z,97013.52
2024-02-24T04:01:55.577Z,97011.21
2024-02-24T04:04:24.075Z,97018.05
2024-02-24T04:06:52.753Z,97021.93
2024-02-24T04:09:21.400Z,97025.69
2024-02-24T04:11:52.301Z,97030.84
2024-02-24T04:14:20.949Z,97025.52
2024-02-24T04:16:49.591Z,97027.50
2024-02-24T04:19:18.069Z,97025.48
2024-02-24T04:21:46.612Z,97019.08
2024-02-24T04:24:15.052Z,97016.67
2024-02-24T04:26:43.673Z,97020.79
2024-02-24T04:29:12.130Z,97019.48
2024-02-24T04:31:40.581Z,97018.75
2024-02-24T04:34:09.270Z,97021.02
2024-02-24T04:36:44.367Z,97022.63
2024-02-24T04:39:12.996Z,97021.95
2024-02-24T04:41:41.637Z,97025.51
2024-02-24T04:44:10.191Z,97027.89
2024-02-24T04:46:39.865Z,97023.58
2024-02-24T04:49:10.156Z,97021.41
2024-02-24T04:51:39.796Z,97018.95
2024-02-24T04:54:08.296Z,97026.50
2024-02-24T04:56:36.780Z,97029.38
2024-02-24T04:59:05.324Z,97037.48
2024-02-24T05:01:33.885Z,97040.14
2024-02-24T05:04:02.573Z,97040.48
2024-02-24T05:06:31.150Z,97037.59
2024-02-24T05:08:59.849Z,97041.41
2024-02-24T05:11:28.758Z,97044.03
2024-02-24T05:13:57.403Z,97051.38
2024-02-24T05:16:26.213Z,97044.29
2024-02-24T05:18:54.707Z,97043.38
2024-02-24T05:21:23.539Z,97043.48
2024-02-24T05:23:52.229Z,97047.44
2024-02-24T05:26:28.356Z,97052.71
2024-02-24T05:28:57.703Z,97057.86
2024-02-24T05:31:26.189Z,97059.58
2024-02-24T05:33:56.325Z,97064.33
2024-02-24T05:36:25.744Z,97073.27
2024-02-24T05:38:54.243Z,97066.34
2024-02-24T05:41:22.832Z,97067.48
2024-02-24T05:43:51.373Z,97067.40
2024-02-24T05:46:19.938Z,97070.14
2024-02-24T05:48:48.509Z,97075.84
2024-02-24T05:51:20.515Z,97081.68
2024-02-24T05:53:50.100Z,97089.00
2024-02-24T05:56:19.018Z,97093.02
2024-02-24T05:58:47.545Z,97097.37
2024-02-24T06:01:16.167Z,97100.83
2024-02-24T06:03:44.796Z,97102.17
2024-02-24T06:06:13.502Z,97102.96
2024-02-24T06:08:42.040Z,97102.98
2024-02-24T06:11:12.671Z,97105.06
2024-02-24T06:13:41.207Z,97104.74
2024-02-24T06:16:12.012Z,97100.17
2024-02-24T06:18:40.704Z,97101.39
2024-02-24T06:21:10.335Z,97102.10
2024-02-24T06:23:38.952Z,97108.13
2024-02-24T06:26:07.601Z,97104.41
2024-02-24T06:28:36.812Z,97109.77
2024-02-24T06:31:05.750Z,97108.77
2024-02-24T06:33:34.408Z,97112.36
2024-02-24T06:36:06.566Z,97109.13
2024-02-24T06:38:35.039Z,97112.21
2024-02-24T06:41:04.543Z,97117.60
2024-02-24T06:43:33.061Z,97113.45
2024-02-24T06:46:01.592Z,97115.67
2024-02-24T06:48:30.240Z,97117.60
2024-02-24T06:50:58.967Z,97119.86
2024-02-24T06:53:27.406Z,97116.87
2024-02-24T06:55:58.259Z,97129.67
2024-02-24T06:58:26.757Z,97130.98
2024-02-24T07:00:55.323Z,97130.54
2024-02-24T07:03:24.402Z,97133.08
2024-02-24T07:05:53.062Z,97130.02
2024-02-24T07:08:21.696Z,97138.66
2024-02-24T07:10:50.974Z,97147.43
2024-02-24T07:13:19.481Z,97150.00
2024-02-24T07:15:47.926Z,97151.91
2024-02-24T07:18:16.524Z,97153.92
2024-02-24T07:20:46.217Z,97150.77
2024-02-24T07:23:14.808Z,97153.38
2024-02-24T07:25:43.270Z,97157.95
2024-02-24T07:28:11.809Z,97158.36
2024-02-24T07:30:40.704Z,97159.73
2024-02-24T07:33:09.557Z,97156.70
2024-02-24T07:35:38.205Z,97160.13
2024-02-24T07:38:06.731Z,97159.34
2024-02-24T07:40:35.841Z,97164.75
2024-02-24T07:43:04.552Z,97166.93
2024-02-24T07:45:33.012Z,97169.23
2024-02-24T07:48:02.059Z,97169.13
2024-02-24T07:50:30.689Z,97169.55
2024-02-24T07:52:59.238Z,97166.25
2024-02-24T07:55:27.791Z,97163.46
2024-02-24T07:57:56.267Z,97165.91
2024-02-24T08:00:26.334Z,97163.19
2024-02-24T08:02:54.905Z,97167.08
2024-02-24T08:05:23.532Z,97168.60
2024-02-24T08:07:52.048Z,97170.43
2024-02-24T08:10:20.602Z,97171.36
2024-02-24T08:12:49.143Z,97172.44
2024-02-24T08:15:17.549Z,97171.20
2024-02-24T08:17:46.217Z,97170.53
2024-02-24T08:20:15.025Z,97172.95
2024-02-24T08:22:45.031Z,97171.71
2024-02-24T08:25:13.529Z,97166.86
2024-02-24T08:27:42.139Z,97173.13
2024-02-24T08:30:11.255Z,97171.11
2024-02-24T08:32:39.734Z,97172.79
2024-02-24T08:35:09.473Z,97170.61
2024-02-24T08:37:38.607Z,97169.34
2024-02-24T08:40:10.505Z,97170.05
2024-02-24T08:42:39.537Z,97170.81
2024-02-24T08:45:08.220Z,97172.59
2024-02-24T08:47:36.753Z,97171.60
2024-02-24T08:50:06.359Z,97175.30
2024-02-24T08:52:43.086Z,97172.36
2024-02-24T08:55:18.478Z,97173.04
2024-02-24T08:57:47.211Z,97176.83
2024-02-24T09:00:16.198Z,97178.59
2024-02-24T09:02:44.712Z,97185.37
2024-02-24T09:05:13.605Z,97184.67
2024-02-24T09:07:42.316Z,97180.83
2024-02-24T09:10:13.883Z,97185.00
2024-02-24T09:12:44.690Z,97186.42
2024-02-24T09:15:13.206Z,97189.11
2024-02-24T09:17:42.267Z,97191.48
2024-02-24T09:20:12.250Z,97193.60
2024-02-24T09:22:45.612Z,97199.35
2024-02-24T09:25:18.224Z,97201.51
2024-02-24T09:27:47.443Z,97202.33
2024-02-24T09:30:15.972Z,97207.46
2024-02-24T09:32:44.552Z,97210.52
2024-02-24T09:35:13.219Z,97212.39
2024-02-24T09:37:41.835Z,97213.27
2024-02-24T09:40:10.611Z,97215.77
2024-02-24T09:42:39.993Z,97223.02
2024-02-24T09:45:17.554Z,97222.40
2024-02-24T09:47:46.361Z,97226.66
2024-02-24T09:50:15.990Z,97231.47
2024-02-24T09:52:44.877Z,97239.39
2024-02-24T09:55:13.594Z,97243.17
2024-02-24T09:57:43.198Z,97243.67
2024-02-24T10:00:12.445Z,97240.52
2024-02-24T10:02:43.274Z,97235.37
2024-02-24T10:05:11.882Z,97238.03
2024-02-24T10:07:41.048Z,97237.19
2024-02-24T10:10:12.095Z,97242.20
2024-02-24T10:12:41.054Z,97244.20
2024-02-24T10:15:10.073Z,97246.45
2024-02-24T10:17:39.467Z,97244.98
2024-02-24T10:20:09.684Z,97247.39
2024-02-24T10:22:40.351Z,97243.30
2024-02-24T10:25:08.996Z,97243.01
2024-02-24T10:27:37.790Z,97245.99
2024-02-24T10:30:09.370Z,97251.66
2024-02-24T10:32:39.793Z,97251.02
2024-02-24T10:35:09.895Z,97244.89
2024-02-24T10:37:52.024Z,97248.65
2024-02-24T10:40:27.292Z,97251.31
2024-02-24T10:42:57.320Z,97252.06
2024-02-24T10:45:28.501Z,97249.00
2024-02-24T10:47:59.322Z,97252.87
2024-02-24T10:50:30.840Z,97252.77
2024-02-24T10:53:02.391Z,97248.92
2024-02-24T10:55:32.736Z,97245.52
2024-02-24T10:58:01.678Z,97248.61
2024-02-24T11:00:36.122Z,97253.00
2024-02-24T11:03:13.421Z,97251.91
2024-02-24T11:05:47.371Z,97251.90
2024-02-24T11:08:37.706Z,97252.61
2024-02-24T11:11:10.101Z,97255.03
2024-02-24T11:13:55.641Z,97256.39
2024-02-24T11:16:37.543Z,97256.77
2024-02-24T11:19:13.348Z,97254.20
2024-02-24T11:22:02.968Z,97253.55
2024-02-24T11:24:35.713Z,97255.50
2024-02-24T11:27:06.296Z,97260.40
2024-02-24T11:29:37.556Z,97258.29
2024-02-24T11:32:14.990Z,97258.17
2024-02-24T11:34:45.914Z,97256.48
2024-02-24T11:37:19.343Z,97262.67
2024-02-24T11:39:50.662Z,97262.47
2024-02-24T11:42:21.813Z,97258.67
2024-02-24T11:44:53.573Z,97255.73
2024-02-24T11:47:25.320Z,97263.29
2024-02-24T11:49:53.940Z,97264.55
2024-02-24T11:52:26.030Z,97264.54
2024-02-24T11:54:55.080Z,97263.98
2024-02-24T11:57:24.941Z,97263.48
2024-02-24T11:59:54.005Z,97260.27
2024-02-24T12:02:22.764Z,97258.80
2024-02-24T12:04:51.469Z,97259.70
2024-02-24T12:07:20.092Z,97261.41
2024-02-24T12:09:51.555Z,97263.25
2024-02-24T12:12:21.462Z,97265.78
2024-02-24T12:18:17.493Z,97272.47
2024-02-24T12:20:50.008Z,97273.13
2024-02-24T12:23:18.971Z,97269.16
2024-02-24T12:25:47.671Z,97264.38
2024-02-24T12:28:20.154Z,97267.13
2024-02-24T12:30:48.685Z,97266.47
2024-02-24T12:33:18.802Z,97264.23
2024-02-24T12:35:49.572Z,97269.04
2024-02-24T12:38:19.233Z,97270.83
2024-02-24T12:40:50.956Z,97268.14
2024-02-24T12:43:19.391Z,97272.15
2024-02-24T12:45:52.997Z,97269.48
2024-02-24T12:48:21.846Z,97270.06
2024-02-24T12:50:51.061Z,97273.16
2024-02-24T12:53:20.936Z,97276.59
2024-02-24T12:55:52.711Z,97276.84
2024-02-24T12:58:22.314Z,97274.05
2024-02-24T13:00:54.281Z,97279.36
2024-02-24T13:03:23.478Z,97282.84
2024-02-24T13:05:57.516Z,97281.32
2024-02-24T13:08:27.066Z,97284.38
2024-02-24T13:10:59.333Z,97284.45
2024-02-24T13:13:28.459Z,97286.59
2024-02-24T13:15:56.977Z,97289.00
2024-02-24T13:18:25.594Z,97293.52
2024-02-24T13:20:56.902Z,97295.80
2024-02-24T13:23:25.400Z,97297.80
2024-02-24T13:25:53.864Z,97298.21
2024-02-24T13:28:22.329Z,97303.23
2024-02-24T13:30:50.887Z,97301.06
2024-02-24T13:33:21.978Z,97304.02
2024-02-24T13:35:50.734Z,97303.83
2024-02-24T13:38:20.485Z,97299.64
2024-02-24T13:40:49.372Z,97300.94
2024-02-24T13:43:18.627Z,97299.14
2024-02-24T13:45:47.394Z,97297.83
2024-02-24T13:48:16.050Z,97301.70
2024-02-24T13:50:44.739Z,97307.63
2024-02-24T13:53:13.510Z,97306.40
2024-02-24T13:55:41.983Z,97308.45
2024-02-24T13:58:12.660Z,97309.46
2024-02-24T14:00:41.229Z,97311.54
2024-02-24T14:03:11.867Z,97313.20
2024-02-24T14:05:41.506Z,97314.55
2024-02-24T14:08:13.169Z,97319.04
2024-02-24T14:10:43.890Z,97324.25
2024-02-24T14:13:14.050Z,97320.87
2024-02-24T14:15:48.264Z,97320.14
2024-02-24T14:18:16.879Z,97318.15
2024-02-24T14:20:45.442Z,97319.13
2024-02-24T14:23:13.924Z,97319.98
2024-02-24T14:25:42.532Z,97327.23
2024-02-24T14:28:14.314Z,97329.04
2024-02-24T14:30:46.601Z,97328.30
2024-02-24T14:33:17.817Z,97325.94
2024-02-24T14:35:46.815Z,97327.52
2024-02-24T14:38:16.855Z,97329.80
2024-02-24T14:40:50.402Z,97328.94
2024-02-24T14:43:19.796Z,97329.76
2024-02-24T14:45:48.291Z,97329.63
2024-02-24T14:48:19.858Z,97331.21
2024-02-24T14:50:52.512Z,97335.25
2024-02-24T14:53:21.119Z,97335.08
2024-02-24T14:55:49.578Z,97335.81
2024-02-24T14:58:18.256Z,97337.92
2024-02-24T15:00:46.784Z,97338.95
2024-02-24T15:03:15.411Z,97340.90
2024-02-24T15:05:44.457Z,97344.23
2024-02-24T15:08:13.155Z,97343.30
2024-02-24T15:10:41.546Z,97344.38
2024-02-24T15:13:10.397Z,97349.75
2024-02-24T15:15:40.232Z,97358.73
2024-02-24T15:18:11.212Z,97357.67
2024-02-24T15:20:40.548Z,97357.39
2024-02-24T15:23:08.964Z,97359.89
2024-02-24T15:25:37.601Z,97358.42
2024-02-24T15:28:09.634Z,97354.05
2024-02-24T15:30:38.702Z,97360.20
2024-02-24T15:33:11.894Z,97365.64
2024-02-24T15:35:41.727Z,97369.05
2024-02-24T15:38:10.293Z,97371.88
2024-02-24T15:40:42.062Z,97371.94
2024-02-24T15:43:14.034Z,97372.11
2024-02-24T15:45:42.789Z,97373.96
2024-02-24T15:48:11.944Z,97374.46
2024-02-24T15:50:40.596Z,97372.47
2024-02-24T15:53:09.684Z,97376.52
2024-02-24T15:55:38.196Z,97377.30
2024-02-24T15:58:06.791Z,97384.54
2024-02-24T16:00:39.321Z,97383.45
2024-02-24T16:03:12.027Z,97382.33
2024-02-24T16:05:41.257Z,97381.76
2024-02-24T16:08:12.545Z,97380.98
2024-02-24T16:10:43.996Z,97384.56
2024-02-24T16:13:14.860Z,97388.05
2024-02-24T16:15:45.976Z,97393.09
2024-02-24T16:18:18.113Z,97393.31
2024-02-24T16:20:47.114Z,97393.48
2024-02-24T16:23:17.350Z,97397.14
2024-02-24T16:25:46.345Z,97402.56
2024-02-24T16:28:14.908Z,97411.63
2024-02-24T16:30:43.408Z,97412.92
2024-02-24T16:33:12.016Z,97418.83
2024-02-24T16:35:40.880Z,97423.88
2024-02-24T16:38:14.302Z,97427.16
2024-02-24T16:40:43.143Z,97425.63
2024-02-24T16:43:13.226Z,97427.64
2024-02-24T16:45:41.851Z,97435.17
2024-02-24T16:48:10.886Z,97440.46
2024-02-24T16:50:42.655Z,97445.06
2024-02-24T16:53:11.146Z,97447.33
2024-02-24T16:55:39.776Z,97453.25
2024-02-24T16:58:08.359Z,97456.71
2024-02-24T17:00:37.030Z,97461.55
2024-02-24T17:03:12.867Z,97459.16
2024-02-24T17:05:42.714Z,97460.90
2024-02-24T17:08:13.519Z,97464.16
2024-02-24T17:10:42.293Z,97467.36
2024-02-24T17:13:12.769Z,97466.51
2024-02-24T17:15:41.366Z,97469.05
2024-02-24T17:18:17.566Z,97474.48
2024-02-24T17:20:47.284Z,97475.00
2024-02-24T17:23:16.018Z,97481.52
2024-02-24T17:25:44.642Z,97481.09
2024-02-24T17:28:13.519Z,97487.77
2024-02-24T17:30:42.106Z,97488.98
2024-02-24T17:33:12.763Z,97493.31
2024-02-24T17:35:44.311Z,97494.39
2024-02-24T17:38:13.212Z,97497.58
2024-02-24T17:40:41.693Z,97496.66
2024-02-24T17:43:10.198Z,97495.32
2024-02-24T17:45:38.771Z,97502.77
2024-02-24T17:48:11.318Z,97506.33
2024-02-24T17:50:39.993Z,97509.85
2024-02-24T17:53:11.325Z,97512.32
2024-02-24T17:55:39.918Z,97512.20
2024-02-24T17:58:08.666Z,97512.45
2024-02-24T18:00:37.249Z,97513.52
2024-02-24T18:03:06.852Z,97518.25
2024-02-24T18:05:35.791Z,97523.06
2024-02-24T18:08:04.924Z,97527.77
2024-02-24T18:10:33.588Z,97525.30
2024-02-24T18:13:02.430Z,97526.48
2024-02-24T18:15:31.404Z,97522.20
2024-02-24T18:18:00.291Z,97521.63
2024-02-24T18:20:29.089Z,97521.55
2024-02-24T18:23:00.552Z,97524.44
2024-02-24T18:25:31.486Z,97525.27
2024-02-24T18:28:05.048Z,97527.30
2024-02-24T18:30:35.753Z,97529.23
2024-02-24T18:33:04.727Z,97529.58
2024-02-24T18:35:34.134Z,97528.05
2024-02-24T18:38:02.754Z,97530.92
2024-02-24T18:40:34.434Z,97533.83
2024-02-24T18:43:02.986Z,97536.23
2024-02-24T18:45:31.720Z,97538.03
2024-02-24T18:48:00.403Z,97542.16
2024-02-24T18:50:29.023Z,97547.45
2024-02-24T18:52:57.575Z,97546.71
2024-02-24T18:55:31.198Z,97548.20
2024-02-24T18:58:00.407Z,97550.43
2024-02-24T19:00:29.351Z,97549.55
2024-02-24T19:02:57.933Z,97551.43
2024-02-24T19:05:26.862Z,97551.48
2024-02-24T19:07:55.591Z,97551.11
2024-02-24T19:10:24.104Z,97551.80
2024-02-24T19:12:53.191Z,97554.84
2024-02-24T19:15:22.699Z,97547.73
2024-02-24T19:17:51.695Z,97547.58
2024-02-24T19:20:22.609Z,97552.75
2024-02-24T19:22:51.908Z,97550.67
2024-02-24T19:25:22.043Z,97551.63
2024-02-24T19:27:51.586Z,97552.38
2024-02-24T19:30:20.203Z,97551.81
2024-02-24T19:32:49.104Z,97551.42
2024-02-24T19:35:20.718Z,97549.26
2024-02-24T19:37:49.731Z,97554.39
2024-02-24T19:40:20.716Z,97558.72
2024-02-24T19:42:49.400Z,97560.64
2024-02-24T19:45:19.548Z,97567.30
2024-02-24T19:47:48.256Z,97566.60
2024-02-24T19:50:18.051Z,97565.21
2024-02-24T19:52:46.770Z,97565.77
2024-02-24T19:55:17.414Z,97574.53
2024-02-24T19:57:46.853Z,97573.45
2024-02-24T20:00:16.182Z,97572.80
2024-02-24T20:02:44.895Z,97571.02
2024-02-24T20:05:14.631Z,97567.70
2024-02-24T20:07:46.418Z,97567.88
2024-02-24T20:10:15.678Z,97564.44
2024-02-24T20:12:44.223Z,97560.48
2024-02-24T20:15:13.153Z,97556.63
2024-02-24T20:17:41.787Z,97556.29
2024-02-24T20:20:11.061Z,97559.52
2024-02-24T20:22:39.762Z,97560.61
2024-02-24T20:25:08.658Z,97565.05
2024-02-24T20:27:37.238Z,97566.99
2024-02-24T20:30:06.527Z,97568.95
2024-02-24T20:32:35.104Z,97564.88
2024-02-24T20:35:06.363Z,97564.52
2024-02-24T20:37:34.838Z,97564.46
2024-02-24T20:40:05.007Z,97564.16
2024-02-24T20:42:33.543Z,97563.15
2024-02-24T20:45:02.396Z,97562.58
2024-02-24T20:47:31.130Z,97558.70
2024-02-24T20:49:59.699Z,97555.39
2024-02-24T20:52:28.244Z,97553.04
2024-02-24T20:54:56.833Z,97554.03
2024-02-24T20:57:32.375Z,97553.04
2024-02-24T21:00:05.787Z,97560.04
2024-02-24T21:02:34.516Z,97564.52
2024-02-24T21:05:04.597Z,97565.67
2024-02-24T21:07:33.162Z,97568.17
2024-02-24T21:10:01.717Z,97571.71
2024-02-24T21:12:30.313Z,97575.61
2024-02-24T21:14:59.217Z,97577.86
2024-02-24T21:17:28.648Z,97576.57
2024-02-24T21:20:04.757Z,97579.14
2024-02-24T21:22:33.721Z,97579.74
2024-02-24T21:25:06.765Z,97579.55
2024-02-24T21:27:35.901Z,97579.88
2024-02-24T21:30:04.884Z,97577.58
2024-02-24T21:32:33.680Z,97577.28
2024-02-24T21:35:04.031Z,97573.27
2024-02-24T21:37:34.308Z,97569.86
2024-02-24T21:40:04.597Z,97569.88
2024-02-24T21:42:33.736Z,97573.52
2024-02-24T21:45:03.898Z,97577.91
2024-02-24T21:47:33.098Z,97580.77
2024-02-24T21:50:01.761Z,97583.84
2024-02-24T21:52:30.593Z,97584.23
2024-02-24T21:55:02.374Z,97579.08
2024-02-24T21:57:33.461Z,97576.61
2024-02-24T22:00:02.291Z,97575.67
2024-02-24T22:02:30.924Z,97573.79
2024-02-24T22:04:59.992Z,97571.33
2024-02-24T22:07:33.967Z,97560.98
2024-02-24T22:10:05.619Z,97556.75
2024-02-24T22:12:34.219Z,97555.59
2024-02-24T22:15:03.334Z,97554.64
2024-02-24T22:17:32.415Z,97555.08
2024-02-24T22:20:01.136Z,97557.23
2024-02-24T22:22:30.086Z,97558.91
2024-02-24T22:24:58.722Z,97556.77
2024-02-24T22:27:29.261Z,97558.08
2024-02-24T22:30:08.420Z,97563.67
2024-02-24T22:32:45.171Z,97565.48
2024-02-24T22:35:14.112Z,97566.44
2024-02-24T22:37:42.772Z,97569.23
2024-02-24T22:40:11.823Z,97566.24
2024-02-24T22:42:40.515Z,97562.95
2024-02-24T22:45:10.280Z,97556.98
2024-02-24T22:47:42.677Z,97558.91
2024-02-24T22:50:12.747Z,97564.80
2024-02-24T22:52:44.378Z,97563.77
2024-02-24T22:55:15.497Z,97562.02
2024-02-24T22:57:44.142Z,97559.24
2024-02-24T23:00:15.025Z,97565.71
2024-02-24T23:02:46.067Z,97566.86
2024-02-24T23:05:14.693Z,97565.48
2024-02-24T23:07:45.453Z,97567.75
2024-02-24T23:10:22.996Z,97569.95
2024-02-24T23:12:51.515Z,97572.64
2024-02-24T23:15:20.120Z,97570.41
2024-02-24T23:17:51.096Z,97570.40
2024-02-24T23:20:19.736Z,97574.27
2024-02-24T23:22:48.255Z,97575.09
2024-02-24T23:25:21.805Z,97578.04
2024-02-24T23:27:50.342Z,97573.52
2024-02-24T23:30:19.056Z,97567.74
2024-02-24T23:32:48.919Z,97563.46
2024-02-24T23:35:17.732Z,97553.02
2024-02-24T23:37:47.155Z,97552.02
2024-02-24T23:40:15.774Z,97554.09
2024-02-24T23:42:44.271Z,97558.14
2024-02-24T23:45:12.920Z,97560.57
2024-02-24T23:47:42.866Z,97561.09
2024-02-24T23:50:11.620Z,97560.89
2024-02-24T23:52:42.700Z,97567.40
2024-02-24T23:55:11.850Z,97572.14
2024-02-24T23:57:40.386Z,97575.20
